Time;durP1;ratioP1;P1;durP2;ratioP2;P2;SDS_P1;SDS_P2;PMS_P1;PMS_P2;Temp;Humidity;BMP_temperature;BMP_pressure;BME280_temperature;BME280_humidity;BME280_pressure;Samples;Min_cycle;Max_cycle;Signal;HPM_P1;HPM_P2
2023/09/28 00:00:38;;;;;;;4.80;4.47;;;;;;;;;;4148467;28;20045;-66
2023/09/28 00:02:41;;;;;;;4.53;4.18;;;;;;;;;;4147779;28;20044;-66
2023/09/28 00:04:43;;;;;;;4.10;3.90;;;;;;;;;;4149020;28;20045;-66
2023/09/28 00:06:45;;;;;;;5.53;5.18;;;;;;;;;;4149055;28;20042;-66
2023/09/28 00:08:46;;;;;;;8.40;5.25;;;;;;;;;;4147759;28;20049;-66
2023/09/28 00:10:48;;;;;;;4.85;4.15;;;;;;;;;;4148983;28;20058;-66
2023/09/28 00:12:50;;;;;;;5.47;4.93;;;;;;;;;;4148977;28;20042;-66
2023/09/28 00:14:52;;;;;;;16.95;4.40;;;;;;;;;;4148879;28;20664;-66
2023/09/28 00:16:54;;;;;;;2.45;2.35;;;;;;;;;;4148667;28;20050;-67
2023/09/28 00:18:56;;;;;;;4.20;3.88;;;;;;;;;;4148854;28;20046;-66
2023/09/28 00:20:58;;;;;;;4.13;4.03;;;;;;;;;;4148727;28;20050;-66
2023/09/28 00:22:59;;;;;;;5.80;4.00;;;;;;;;;;4163218;28;20048;-66
2023/09/28 00:25:01;;;;;;;4.40;4.07;;;;;;;;;;4159067;28;20115;-66
2023/09/28 00:27:02;;;;;;;6.13;4.27;;;;;;;;;;4148734;28;20117;-67
2023/09/28 00:29:04;;;;;;;4.63;4.25;;;;;;;;;;4148592;28;20285;-66
2023/09/28 00:31:06;;;;;;;4.70;4.60;;;;;;;;;;4148634;28;20096;-66
2023/09/28 00:33:08;;;;;;;4.75;4.65;;;;;;;;;;4148175;28;20096;-66
2023/09/28 00:35:10;;;;;;;5.38;4.25;;;;;;;;;;4148771;28;20156;-66
2023/09/28 00:37:11;;;;;;;7.88;4.85;;;;;;;;;;4148476;28;20046;-66
2023/09/28 00:39:13;;;;;;;3.28;2.85;;;;;;;;;;4148318;28;20069;-66
2023/09/28 00:41:15;;;;;;;2.47;2.38;;;;;;;;;;4148573;28;20042;-66
2023/09/28 00:43:24;;;;;;;3.90;2.70;;;;;;;;;;4148399;28;20049;-66
2023/09/28 00:45:26;;;;;;;7.60;7.30;;;;;;;;;;4148366;28;20049;-66
2023/09/28 00:47:28;;;;;;;7.10;6.82;;;;;;;;;;4148142;28;20042;-66
2023/09/28 00:49:30;;;;;;;7.30;6.60;;;;;;;;;;4148549;28;20042;-66
2023/09/28 00:51:33;;;;;;;9.40;8.50;;;;;;;;;;4148320;28;20037;-66
2023/09/28 00:53:35;;;;;;;8.60;8.20;;;;;;;;;;4148370;28;20287;-66
2023/09/28 00:55:39;;;;;;;9.43;9.13;;;;;;;;;;4148336;28;20049;-66
2023/09/28 00:57:42;;;;;;;8.65;8.55;;;;;;;;;;4146821;28;20030;-66
2023/09/28 00:59:43;;;;;;;9.27;8.75;;;;;;;;;;4148243;28;20069;-66
2023/09/28 01:01:47;;;;;;;10.47;10.00;;;;;;;;;;4147919;28;20465;-66
2023/09/28 01:03:48;;;;;;;11.18;10.57;;;;;;;;;;4148073;28;20863;-66
2023/09/28 01:05:50;;;;;;;13.27;12.60;;;;;;;;;;4147927;28;20036;-67
2023/09/28 01:07:52;;;;;;;12.63;11.65;;;;;;;;;;4148025;28;20034;-66
2023/09/28 01:09:54;;;;;;;11.15;10.80;;;;;;;;;;4146941;28;20495;-66
2023/09/28 01:11:57;;;;;;;10.52;9.93;;;;;;;;;;4148508;28;20512;-66
2023/09/28 01:14:00;;;;;;;12.75;12.10;;;;;;;;;;4147883;28;20532;-67
2023/09/28 01:16:02;;;;;;;12.57;12.18;;;;;;;;;;4148179;28;20041;-66
2023/09/28 01:18:04;;;;;;;12.60;12.15;;;;;;;;;;4152755;28;20087;-66
2023/09/28 01:20:34;;;;;;;13.50;12.48;;;;;;;;;;4164459;28;20045;-66
2023/09/28 01:22:31;;;;;;;13.15;12.30;;;;;;;;;;4147984;28;20084;-66
2023/09/28 01:24:33;;;;;;;11.60;11.10;;;;;;;;;;4147852;28;20088;-66
2023/09/28 01:26:35;;;;;;;10.45;10.23;;;;;;;;;;4148032;28;20048;-66
2023/09/28 01:28:37;;;;;;;9.33;8.97;;;;;;;;;;4147877;28;20092;-66
2023/09/28 01:30:39;;;;;;;10.95;10.27;;;;;;;;;;4147819;28;20289;-66
2023/09/28 01:32:42;;;;;;;11.43;10.55;;;;;;;;;;4146561;28;20046;-66
2023/09/28 01:34:43;;;;;;;10.98;10.02;;;;;;;;;;4147788;28;20529;-66
2023/09/28 01:36:45;;;;;;;10.35;9.95;;;;;;;;;;4147710;28;20155;-66
2023/09/28 01:38:55;;;;;;;11.40;11.07;;;;;;;;;;4147579;28;20054;-67
2023/09/28 01:40:57;;;;;;;11.48;10.73;;;;;;;;;;4147959;28;20379;-66
2023/09/28 01:42:58;;;;;;;9.93;9.30;;;;;;;;;;4147654;28;20101;-67
2023/09/28 01:45:03;;;;;;;9.55;9.07;;;;;;;;;;4147558;28;20046;-66
2023/09/28 01:47:05;;;;;;;8.43;8.05;;;;;;;;;;4147406;28;20042;-66
2023/09/28 01:49:06;;;;;;;8.73;8.27;;;;;;;;;;4147697;28;20037;-65
2023/09/28 01:51:08;;;;;;;8.00;7.77;;;;;;;;;;4146265;28;20038;-66
2023/09/28 01:53:12;;;;;;;7.50;7.20;;;;;;;;;;4147593;28;20121;-66
2023/09/28 01:55:14;;;;;;;7.70;7.40;;;;;;;;;;4147575;28;20081;-66
2023/09/28 01:57:15;;;;;;;6.88;6.32;;;;;;;;;;4147571;28;20295;-66
2023/09/28 01:59:17;;;;;;;7.37;6.20;;;;;;;;;;4147596;28;20414;-66
2023/09/28 02:01:27;;;;;;;7.57;5.07;;;;;;;;;;4147291;28;20076;-66
2023/09/28 02:03:29;;;;;;;4.20;4.07;;;;;;;;;;4147620;28;20056;-66
2023/09/28 02:05:34;;;;;;;3.75;3.63;;;;;;;;;;4146825;28;20064;-66
2023/09/28 02:07:36;;;;;;;6.90;4.13;;;;;;;;;;4131261;28;20522;-66
2023/09/28 02:09:38;;;;;;;4.80;4.47;;;;;;;;;;4138254;28;20437;-66
2023/09/28 02:11:43;;;;;;;4.32;3.80;;;;;;;;;;4150725;28;20046;-66
2023/09/28 02:13:45;;;;;;;4.22;3.45;;;;;;;;;;4150386;28;20034;-66
2023/09/28 02:15:47;;;;;;;3.97;3.50;;;;;;;;;;4134609;28;20117;-66
2023/09/28 02:17:49;;;;;;;3.88;3.67;;;;;;;;;;4157157;28;20052;-66
2023/09/28 02:19:50;;;;;;;3.65;3.53;;;;;;;;;;4150648;28;20402;-66
2023/09/28 02:21:53;;;;;;;4.22;3.42;;;;;;;;;;4150657;28;20066;-66
2023/09/28 02:23:54;;;;;;;3.80;3.47;;;;;;;;;;4149407;28;20096;-66
2023/09/28 02:26:04;;;;;;;4.63;3.63;;;;;;;;;;4150774;28;20313;-66
2023/09/28 02:28:06;;;;;;;7.00;4.90;;;;;;;;;;4150802;28;20046;-66
2023/09/28 02:30:11;;;;;;;3.60;3.50;;;;;;;;;;4150804;28;20034;-66
2023/09/28 02:32:13;;;;;;;4.22;3.95;;;;;;;;;;4150304;28;20088;-66
2023/09/28 02:34:15;;;;;;;4.65;4.45;;;;;;;;;;4150686;28;20042;-66
2023/09/28 02:36:17;;;;;;;5.03;4.63;;;;;;;;;;4149228;28;20046;-66
2023/09/28 02:38:19;;;;;;;6.03;5.50;;;;;;;;;;4150234;28;20042;-66
2023/09/28 02:40:22;;;;;;;6.50;6.30;;;;;;;;;;4150070;28;20045;-66
2023/09/28 02:42:23;;;;;;;7.55;7.03;;;;;;;;;;4150265;28;20084;-66
2023/09/28 02:44:25;;;;;;;6.67;6.23;;;;;;;;;;4150428;28;20045;-66
2023/09/28 02:46:27;;;;;;;7.25;6.68;;;;;;;;;;4150150;28;20823;-66
2023/09/28 02:48:29;;;;;;;8.10;7.75;;;;;;;;;;4148867;28;20045;-66
2023/09/28 02:50:33;;;;;;;5.97;5.78;;;;;;;;;;4133979;28;20038;-66
2023/09/28 02:52:35;;;;;;;7.18;6.10;;;;;;;;;;4133819;28;20502;-66
2023/09/28 02:54:37;;;;;;;5.53;5.32;;;;;;;;;;4133888;28;20058;-66
2023/09/28 02:56:39;;;;;;;5.97;5.73;;;;;;;;;;4133857;28;20046;-67
2023/09/28 02:58:40;;;;;;;5.95;5.50;;;;;;;;;;4148670;28;20045;-66
2023/09/28 03:00:42;;;;;;;6.57;6.43;;;;;;;;;;4166020;28;20107;-65
2023/09/28 03:02:45;;;;;;;6.28;5.72;;;;;;;;;;4151799;28;20383;-66
2023/09/28 03:04:49;;;;;;;5.72;5.28;;;;;;;;;;4150118;28;20094;-66
2023/09/28 03:06:52;;;;;;;9.45;8.60;;;;;;;;;;4149903;28;20042;-66
2023/09/28 03:08:54;;;;;;;9.48;9.13;;;;;;;;;;4149824;28;20046;-66
2023/09/28 03:10:56;;;;;;;9.25;8.95;;;;;;;;;;4142054;28;20042;-66
2023/09/28 03:12:58;;;;;;;;;;;;;;;;;;4134103;28;20046;-66
2023/09/28 03:15:00;;;;;;;6.35;6.15;;;;;;;;;;4149234;28;19925;-66
2023/09/28 03:17:03;;;;;;;6.80;6.45;;;;;;;;;;4149796;28;20042;-66
2023/09/28 03:19:06;;;;;;;7.18;6.75;;;;;;;;;;4149754;28;20481;-66
2023/09/28 03:21:08;;;;;;;6.78;6.38;;;;;;;;;;4149614;28;20054;-66
2023/09/28 03:23:10;;;;;;;6.20;5.97;;;;;;;;;;4148583;28;20125;-66
2023/09/28 03:25:18;;;;;;;6.28;6.07;;;;;;;;;;4149630;28;20064;-66
2023/09/28 03:27:20;;;;;;;5.35;5.15;;;;;;;;;;4149644;28;20088;-66
2023/09/28 03:29:22;;;;;;;5.50;5.07;;;;;;;;;;4149811;28;20457;-66
2023/09/28 03:31:32;;;;;;;7.03;6.73;;;;;;;;;;4148403;28;20120;-66
2023/09/28 03:33:35;;;;;;;6.07;5.72;;;;;;;;;;4149548;28;20037;-66
2023/09/28 03:35:37;;;;;;;6.80;6.57;;;;;;;;;;4149443;28;20410;-66
2023/09/28 03:37:42;;;;;;;6.10;5.60;;;;;;;;;;4149496;28;20074;-66
2023/09/28 03:39:43;;;;;;;5.65;5.35;;;;;;;;;;4149227;28;20053;-66
2023/09/28 03:41:45;;;;;;;5.50;5.28;;;;;;;;;;4149372;28;20489;-65
2023/09/28 03:43:48;;;;;;;5.97;5.57;;;;;;;;;;4146173;28;20050;-66
2023/09/28 03:45:50;;;;;;;5.15;4.95;;;;;;;;;;4133290;28;20820;-66
2023/09/28 03:47:52;;;;;;;5.32;5.00;;;;;;;;;;4148192;28;20121;-66
2023/09/28 03:49:54;;;;;;;5.57;5.30;;;;;;;;;;4149277;28;20379;-66
2023/09/28 03:51:55;;;;;;;5.07;4.60;;;;;;;;;;4149248;28;20406;-66
2023/09/28 03:53:57;;;;;;;4.60;4.50;;;;;;;;;;4149265;28;20320;-66
2023/09/28 03:55:59;;;;;;;5.30;5.20;;;;;;;;;;4149193;28;20494;-66
2023/09/28 03:58:01;;;;;;;5.22;4.78;;;;;;;;;;4149247;28;20046;-66
2023/09/28 04:00:04;;;;;;;;;;;;;;;;;;4149531;28;20054;-66
2023/09/28 04:02:06;;;;;;;4.70;4.20;;;;;;;;;;4148671;28;20431;-66
2023/09/28 04:04:08;;;;;;;4.90;4.47;;;;;;;;;;4149109;28;20277;-66
2023/09/28 04:06:09;;;;;;;5.45;3.92;;;;;;;;;;4148122;28;20042;-65
2023/09/28 04:08:11;;;;;;;5.23;5.13;;;;;;;;;;4144338;28;20034;-65
2023/09/28 04:10:13;;;;;;;6.47;6.07;;;;;;;;;;4140157;28;20120;-66
2023/09/28 04:12:15;;;;;;;5.85;5.45;;;;;;;;;;4148975;28;20042;-66
2023/09/28 04:14:16;;;;;;;4.78;4.40;;;;;;;;;;4148935;28;20038;-66
2023/09/28 04:16:18;;;;;;;6.00;5.80;;;;;;;;;;4148945;28;20060;-66
2023/09/28 04:18:20;;;;;;;7.90;7.70;;;;;;;;;;4148812;28;20126;-66
2023/09/28 04:20:21;;;;;;;9.05;8.35;;;;;;;;;;4147496;28;20049;-66
2023/09/28 04:22:23;;;;;;;9.38;8.98;;;;;;;;;;4149039;28;20046;-66
2023/09/28 04:24:25;;;;;;;11.52;11.10;;;;;;;;;;4148776;28;20120;-66
2023/09/28 04:26:26;;;;;;;13.93;13.37;;;;;;;;;;4148768;28;20124;-66
2023/09/28 04:28:28;;;;;;;12.77;12.48;;;;;;;;;;4147749;28;20497;-66
2023/09/28 04:30:29;;;;;;;12.27;12.07;;;;;;;;;;4145773;28;20100;-66
2023/09/28 04:32:34;;;;;;;12.40;12.10;;;;;;;;;;4145131;28;20041;-66
2023/09/28 04:34:36;;;;;;;12.43;12.10;;;;;;;;;;4148450;28;20402;-66
2023/09/28 04:36:38;;;;;;;12.82;12.02;;;;;;;;;;4148560;28;20129;-65
2023/09/28 04:38:41;;;;;;;10.73;10.45;;;;;;;;;;4147180;28;20061;-66
2023/09/28 04:40:42;;;;;;;;;;;;;;;;;;4148810;28;20073;-65
2023/09/28 04:42:44;;;;;;;11.65;11.10;;;;;;;;;;4147065;28;19925;-66
2023/09/28 04:44:46;;;;;;;12.68;12.00;;;;;;;;;;4148502;28;20612;-65
2023/09/28 04:46:50;;;;;;;12.05;11.27;;;;;;;;;;4148246;28;20053;-65
2023/09/28 04:48:52;;;;;;;10.02;9.60;;;;;;;;;;4148455;28;20037;-65
2023/09/28 04:50:56;;;;;;;10.23;9.73;;;;;;;;;;4148216;28;20037;-66
2023/09/28 04:52:58;;;;;;;10.13;9.25;;;;;;;;;;4148309;28;20089;-66
2023/09/28 04:55:01;;;;;;;9.02;8.63;;;;;;;;;;4148331;28;20042;-66
2023/09/28 04:57:03;;;;;;;12.90;10.48;;;;;;;;;;4148245;28;20062;-66
2023/09/28 04:59:04;;;;;;;10.93;10.07;;;;;;;;;;4147919;28;20088;-65
2023/09/28 05:01:06;;;;;;;9.85;9.32;;;;;;;;;;4148178;28;20057;-65
2023/09/28 05:03:07;;;;;;;9.53;9.23;;;;;;;;;;4142803;28;20046;-65
2023/09/28 05:05:09;;;;;;;8.35;8.15;;;;;;;;;;4131976;28;20514;-65
2023/09/28 05:07:11;;;;;;;8.00;7.60;;;;;;;;;;4131924;28;20042;-65
2023/09/28 05:09:13;;;;;;;8.02;7.28;;;;;;;;;;4131808;28;20035;-66
2023/09/28 05:11:15;;;;;;;7.80;7.15;;;;;;;;;;4147408;28;20038;-66
2023/09/28 05:13:17;;;;;;;8.55;8.35;;;;;;;;;;4147954;28;20053;-65
2023/09/28 05:15:20;;;;;;;8.73;8.60;;;;;;;;;;4148348;28;20037;-66
2023/09/28 05:17:22;;;;;;;10.98;10.38;;;;;;;;;;4130675;28;20046;-70
2023/09/28 05:19:25;;;;;;;11.25;10.65;;;;;;;;;;4148278;28;20050;-69
2023/09/28 05:21:26;;;;;;;13.23;12.82;;;;;;;;;;4147978;28;20454;-70
2023/09/28 05:23:28;;;;;;;14.73;14.13;;;;;;;;;;4147947;28;20378;-70
2023/09/28 05:25:30;;;;;;;14.77;14.10;;;;;;;;;;4148125;28;20045;-69
2023/09/28 05:27:33;;;;;;;14.88;14.35;;;;;;;;;;4145693;28;20061;-70
2023/09/28 05:29:36;;;;;;;14.77;14.52;;;;;;;;;;4147209;28;20096;-71
2023/09/28 05:31:38;;;;;;;16.47;16.00;;;;;;;;;;4147814;28;20117;-70
2023/09/28 05:33:41;;;;;;;16.55;15.82;;;;;;;;;;4147736;28;20281;-70
2023/09/28 05:35:43;;;;;;;17.52;16.58;;;;;;;;;;4147670;28;20050;-69
2023/09/28 05:37:45;;;;;;;15.20;14.65;;;;;;;;;;4132428;28;20070;-68
2023/09/28 05:39:47;;;;;;;14.90;14.17;;;;;;;;;;4130987;28;20042;-69
2023/09/28 05:41:48;;;;;;;14.77;13.98;;;;;;;;;;4131520;28;20292;-69
2023/09/28 05:43:53;;;;;;;12.82;12.40;;;;;;;;;;4131111;28;20117;-71
2023/09/28 05:45:56;;;;;;;14.00;13.23;;;;;;;;;;4131049;28;20101;-69
2023/09/28 05:47:57;;;;;;;13.35;12.75;;;;;;;;;;4147255;28;20125;-69
2023/09/28 05:49:59;;;;;;;13.80;13.10;;;;;;;;;;4146826;28;20505;-69
2023/09/28 05:52:01;;;;;;;12.87;12.00;;;;;;;;;;4148070;28;20284;-69
2023/09/28 05:54:03;;;;;;;10.90;10.68;;;;;;;;;;4147297;28;20088;-69
2023/09/28 05:56:05;;;;;;;11.13;10.20;;;;;;;;;;4146656;28;20490;-70
2023/09/28 05:58:07;;;;;;;;;;;;;;;;;;4147095;28;20053;-70
2023/09/28 06:00:09;;;;;;;9.63;9.40;;;;;;;;;;4147450;28;19922;-68
2023/09/28 06:02:11;;;;;;;8.98;8.45;;;;;;;;;;4144684;28;20088;-69
2023/09/28 06:04:13;;;;;;;9.63;9.30;;;;;;;;;;4145838;28;20093;-70
2023/09/28 06:06:19;;;;;;;9.27;9.07;;;;;;;;;;4152125;28;20100;-69
2023/09/28 06:08:20;;;;;;;8.23;7.95;;;;;;;;;;4146278;28;20119;-70
2023/09/28 06:10:24;;;;;;;8.02;7.72;;;;;;;;;;4146913;28;20069;-70
2023/09/28 06:12:26;;;;;;;8.77;8.37;;;;;;;;;;4147039;28;20391;-70
2023/09/28 06:14:28;;;;;;;7.80;7.37;;;;;;;;;;4144994;28;20327;-69
2023/09/28 06:16:29;;;;;;;7.53;7.33;;;;;;;;;;4144788;28;20046;-69
2023/09/28 06:18:32;;;;;;;6.85;6.72;;;;;;;;;;4131325;28;20349;-69
2023/09/28 06:20:33;;;;;;;7.00;6.57;;;;;;;;;;4139181;28;20537;-70
2023/09/28 06:22:41;;;;;;;8.30;5.70;;;;;;;;;;4146085;28;20449;-70
2023/09/28 06:24:46;;;;;;;7.60;6.18;;;;;;;;;;4146524;28;20121;-69
2023/09/28 06:26:49;;;;;;;5.00;4.70;;;;;;;;;;4135762;28;20053;-70
2023/09/28 06:28:50;;;;;;;5.22;4.90;;;;;;;;;;4131190;28;20414;-70
2023/09/28 06:30:53;;;;;;;4.43;4.22;;;;;;;;;;4145227;28;20052;-70
2023/09/28 06:32:55;;;;;;;4.85;4.40;;;;;;;;;;4141671;28;20491;-70
2023/09/28 06:34:56;;;;;;;4.50;4.30;;;;;;;;;;4153856;28;20041;-69
2023/09/28 06:36:58;;;;;;;4.45;4.28;;;;;;;;;;4162388;28;20045;-70
2023/09/28 06:39:00;;;;;;;5.18;4.65;;;;;;;;;;4163154;28;20050;-70
2023/09/28 06:41:02;;;;;;;5.65;4.47;;;;;;;;;;4157072;28;20057;-70
2023/09/28 06:43:04;;;;;;;4.53;4.32;;;;;;;;;;4146647;28;20069;-70
2023/09/28 06:45:07;;;;;;;6.35;5.57;;;;;;;;;;4146945;28;20104;-68
2023/09/28 06:47:08;;;;;;;;;;;;;;;;;;4146157;28;20100;-70
2023/09/28 06:49:11;;;;;;;5.38;4.85;;;;;;;;;;4147102;28;19922;-69
2023/09/28 06:51:15;;;;;;;5.15;4.65;;;;;;;;;;4152270;28;20044;-69
2023/09/28 06:53:19;;;;;;;5.15;4.82;;;;;;;;;;4145159;28;20097;-70
2023/09/28 06:55:23;;;;;;;5.20;4.80;;;;;;;;;;4146674;28;20038;-70
2023/09/28 06:57:25;;;;;;;5.10;4.10;;;;;;;;;;4146924;28;20040;-70
2023/09/28 06:59:27;;;;;;;6.90;4.97;;;;;;;;;;4149186;28;20101;-71
2023/09/28 07:01:29;;;;;;;4.85;4.47;;;;;;;;;;4138237;28;20054;-69
2023/09/28 07:03:33;;;;;;;4.03;3.63;;;;;;;;;;4132942;28;20042;-70
2023/09/28 07:05:35;;;;;;;3.88;3.67;;;;;;;;;;4132719;28;20069;-67
2023/09/28 07:07:37;;;;;;;12.52;4.70;;;;;;;;;;4150066;28;20033;-68
2023/09/28 07:09:39;;;;;;;9.68;4.28;;;;;;;;;;4148505;28;20093;-70
2023/09/28 07:11:55;;;;;;;3.88;3.65;;;;;;;;;;4139770;28;20030;-70
2023/09/28 07:13:57;;;;;;;8.47;4.20;;;;;;;;;;4147202;28;20045;-70
2023/09/28 07:15:58;;;;;;;4.37;3.60;;;;;;;;;;4149750;28;20512;-69
2023/09/28 07:18:00;;;;;;;4.07;3.78;;;;;;;;;;4149243;28;20316;-70
2023/09/28 07:20:03;;;;;;;4.50;3.53;;;;;;;;;;4148829;28;20818;-69
2023/09/28 07:22:05;;;;;;;6.00;3.80;;;;;;;;;;4149454;28;20038;-69
2023/09/28 07:24:07;;;;;;;4.05;3.47;;;;;;;;;;4148349;28;20094;-67
2023/09/28 07:26:19;;;;;;;6.82;2.92;;;;;;;;;;4138955;28;20042;-70
2023/09/28 07:28:21;;;;;;;5.13;3.67;;;;;;;;;;4148477;28;20060;-69
2023/09/28 07:30:23;;;;;;;2.78;2.70;;;;;;;;;;4147762;28;20038;-70
2023/09/28 07:32:25;;;;;;;5.03;2.80;;;;;;;;;;4149928;28;20091;-66
2023/09/28 07:34:27;;;;;;;3.95;2.72;;;;;;;;;;4145914;28;20041;-70
2023/09/28 07:36:29;;;;;;;6.55;2.47;;;;;;;;;;4148751;28;20045;-70
2023/09/28 07:38:34;;;;;;;3.78;3.47;;;;;;;;;;4147571;28;20046;-70
2023/09/28 07:40:35;;;;;;;5.78;3.45;;;;;;;;;;4147884;28;20037;-71
2023/09/28 07:42:45;;;;;;;6.78;3.13;;;;;;;;;;4149274;28;20147;-70
2023/09/28 07:44:49;;;;;;;14.02;4.05;;;;;;;;;;4147532;28;20068;-70
2023/09/28 07:46:52;;;;;;;5.90;3.45;;;;;;;;;;4147453;28;20077;-71
2023/09/28 07:48:56;;;;;;;;;;;;;;;;;;4148944;28;20034;-69
2023/09/28 07:50:58;;;;;;;3.90;3.67;;;;;;;;;;4151525;28;19929;-70
2023/09/28 07:53:01;;;;;;;4.05;3.70;;;;;;;;;;4154669;28;20520;-70
2023/09/28 07:55:03;;;;;;;6.57;4.00;;;;;;;;;;4148065;28;20038;-70
2023/09/28 07:57:05;;;;;;;7.18;3.33;;;;;;;;;;4148139;28;20700;-70
2023/09/28 07:59:06;;;;;;;4.10;2.83;;;;;;;;;;4143217;28;20042;-70
2023/09/28 08:01:09;;;;;;;8.18;4.18;;;;;;;;;;4147858;28;20433;-70
2023/09/28 08:03:11;;;;;;;3.38;3.05;;;;;;;;;;4148650;28;20073;-70
2023/09/28 08:05:13;;;;;;;4.03;3.63;;;;;;;;;;4147616;28;20149;-70
2023/09/28 08:07:15;;;;;;;5.25;3.47;;;;;;;;;;4147155;28;20402;-70
2023/09/28 08:09:19;;;;;;;7.55;3.40;;;;;;;;;;4147410;28;20141;-70
2023/09/28 08:11:20;;;;;;;3.78;3.50;;;;;;;;;;4150156;28;20120;-69
2023/09/28 08:13:23;;;;;;;3.88;3.45;;;;;;;;;;4148100;28;20042;-70
2023/09/28 08:15:25;;;;;;;4.63;3.67;;;;;;;;;;4147784;28;20034;-70
2023/09/28 08:17:39;;;;;;;6.32;2.83;;;;;;;;;;4148508;28;20510;-69
2023/09/28 08:19:42;;;;;;;8.45;2.65;;;;;;;;;;4148839;28;20498;-71
2023/09/28 08:21:44;;;;;;;7.03;2.72;;;;;;;;;;4138025;28;20066;-71
2023/09/28 08:23:46;;;;;;;3.63;2.08;;;;;;;;;;4141310;28;20125;-70
2023/09/28 08:25:48;;;;;;;2.95;2.53;;;;;;;;;;4148148;28;20034;-69
2023/09/28 08:27:50;;;;;;;4.63;2.20;;;;;;;;;;4145637;28;20046;-70
2023/09/28 08:29:55;;;;;;;5.40;2.53;;;;;;;;;;4147951;28;20121;-70
2023/09/28 08:31:57;;;;;;;3.92;2.40;;;;;;;;;;4148213;28;20107;-70
2023/09/28 08:34:01;;;;;;;4.53;1.90;;;;;;;;;;4146577;28;20111;-70
2023/09/28 08:36:08;;;;;;;5.93;1.98;;;;;;;;;;4148615;28;20050;-70
2023/09/28 08:38:11;;;;;;;4.80;2.20;;;;;;;;;;4148560;28;20073;-70
2023/09/28 08:40:18;;;;;;;1.77;1.67;;;;;;;;;;4148096;28;20121;-71
2023/09/28 08:42:23;;;;;;;6.28;2.10;;;;;;;;;;4146651;28;20042;-70
2023/09/28 08:44:28;;;;;;;4.88;1.55;;;;;;;;;;4147632;28;20046;-70
2023/09/28 08:46:31;;;;;;;9.75;1.52;;;;;;;;;;4146921;28;20049;-70
2023/09/28 08:48:47;;;;;;;5.50;1.60;;;;;;;;;;4145298;28;20041;-70
2023/09/28 08:50:50;;;;;;;1.95;1.85;;;;;;;;;;4136120;28;20046;-71
2023/09/28 08:52:54;;;;;;;4.20;2.08;;;;;;;;;;4150021;28;20046;-70
2023/09/28 08:54:57;;;;;;;1.92;1.73;;;;;;;;;;4145706;28;20119;-71
2023/09/28 08:56:58;;;;;;;4.00;1.52;;;;;;;;;;4147819;28;20053;-70
2023/09/28 08:59:01;;;;;;;3.78;1.90;;;;;;;;;;4147528;28;20030;-70
2023/09/28 09:01:06;;;;;;;2.25;2.08;;;;;;;;;;4146842;28;20054;-70
2023/09/28 09:03:09;;;;;;;5.00;2.08;;;;;;;;;;4146454;28;20046;-68
2023/09/28 09:05:14;;;;;;;4.55;1.75;;;;;;;;;;4147134;28;20037;-70
2023/09/28 09:07:16;;;;;;;1.85;1.75;;;;;;;;;;4148069;28;20042;-70
2023/09/28 09:09:18;;;;;;;1.77;1.50;;;;;;;;;;4144041;28;20029;-71
2023/09/28 09:11:20;;;;;;;2.35;1.40;;;;;;;;;;4137367;28;20039;-70
2023/09/28 09:13:22;;;;;;;3.17;1.65;;;;;;;;;;4136900;28;20040;-71
2023/09/28 09:15:24;;;;;;;6.28;1.67;;;;;;;;;;4147269;28;20033;-70
2023/09/28 09:17:32;;;;;;;3.08;1.40;;;;;;;;;;4146184;28;20088;-71
2023/09/28 09:19:35;;;;;;;4.22;1.30;;;;;;;;;;4135613;28;20124;-70
2023/09/28 09:21:42;;;;;;;2.00;1.15;;;;;;;;;;4140830;28;20494;-70
2023/09/28 09:23:43;;;;;;;2.45;1.20;;;;;;;;;;4142298;28;20510;-71
2023/09/28 09:25:47;;;;;;;1.88;0.98;;;;;;;;;;4137223;28;20109;-70
2023/09/28 09:27:50;;;;;;;1.10;1.10;;;;;;;;;;4147732;28;20063;-71
2023/09/28 09:29:56;;;;;;;2.85;1.20;;;;;;;;;;4148107;28;20042;-71
2023/09/28 09:31:58;;;;;;;1.45;1.25;;;;;;;;;;4147737;28;20061;-71
2023/09/28 09:34:04;;;;;;;3.08;1.50;;;;;;;;;;4146142;28;20498;-71
2023/09/28 09:36:05;;;;;;;1.55;1.45;;;;;;;;;;4146734;28;20041;-70
2023/09/28 09:38:07;;;;;;;1.00;1.00;;;;;;;;;;4146507;28;20066;-70
2023/09/28 09:40:13;;;;;;;1.25;1.25;;;;;;;;;;4144274;28;20042;-69
2023/09/28 09:42:24;;;;;;;2.45;1.30;;;;;;;;;;4145338;28;20493;-71
2023/09/28 09:44:28;;;;;;;4.00;1.10;;;;;;;;;;4147157;28;20112;-70
2023/09/28 09:46:33;;;;;;;5.53;1.10;;;;;;;;;;4146201;28;20121;-70
2023/09/28 09:48:42;;;;;;;1.60;1.00;;;;;;;;;;4144554;28;20038;-70
2023/09/28 09:50:43;;;;;;;1.75;1.30;;;;;;;;;;4145229;28;20050;-70
2023/09/28 09:52:45;;;;;;;1.10;1.02;;;;;;;;;;4146677;28;20081;-71
2023/09/28 09:54:47;;;;;;;0.95;0.95;;;;;;;;;;4147405;28;20100;-70
2023/09/28 09:56:49;;;;;;;1.45;1.00;;;;;;;;;;4138454;28;20569;-70
2023/09/28 09:58:53;;;;;;;1.45;0.98;;;;;;;;;;4140749;28;20093;-70
2023/09/28 10:00:56;;;;;;;1.65;1.42;;;;;;;;;;4145488;28;20052;-70
2023/09/28 10:03:00;;;;;;;1.17;1.08;;;;;;;;;;4135620;28;20111;-70
2023/09/28 10:05:03;;;;;;;1.17;1.00;;;;;;;;;;4145189;28;20494;-71
2023/09/28 10:07:06;;;;;;;1.50;0.90;;;;;;;;;;4136577;28;20050;-69
2023/09/28 10:09:10;;;;;;;3.35;1.00;;;;;;;;;;4146167;28;20528;-70
2023/09/28 10:11:13;;;;;;;9.27;1.23;;;;;;;;;;4144908;28;20116;-70
2023/09/28 10:13:15;;;;;;;2.25;1.20;;;;;;;;;;4144745;28;20080;-71
2023/09/28 10:15:19;;;;;;;2.80;1.00;;;;;;;;;;4139394;28;20092;-70
2023/09/28 10:17:21;;;;;;;3.13;1.02;;;;;;;;;;4146146;28;20038;-70
2023/09/28 10:19:24;;;;;;;4.63;1.10;;;;;;;;;;4147184;28;20501;-70
2023/09/28 10:21:26;;;;;;;1.13;1.10;;;;;;;;;;4146019;28;20157;-70
2023/09/28 10:23:31;;;;;;;3.42;1.25;;;;;;;;;;4146478;28;20042;-69
2023/09/28 10:25:51;;;;;;;1.45;1.00;;;;;;;;;;4145295;28;20044;-70
2023/09/28 10:27:56;;;;;;;2.95;0.80;;;;;;;;;;4145338;28;20038;-70
2023/09/28 10:30:18;;;;;;;1.40;0.80;;;;;;;;;;4144470;28;20049;-69
2023/09/28 10:32:30;;;;;;;0.82;0.82;;;;;;;;;;4145140;28;20514;-70
2023/09/28 10:34:32;;;;;;;0.80;0.80;;;;;;;;;;4149504;28;20049;-70
2023/09/28 10:36:35;;;;;;;1.88;0.80;;;;;;;;;;4147224;28;20092;-70
2023/09/28 10:38:38;;;;;;;2.88;0.90;;;;;;;;;;4149278;28;20046;-70
2023/09/28 10:40:41;;;;;;;1.95;0.88;;;;;;;;;;4149023;28;20558;-68
2023/09/28 10:43:04;;;;;;;1.75;0.80;;;;;;;;;;4145456;28;20045;-70
2023/09/28 10:45:06;;;;;;;1.20;0.80;;;;;;;;;;4147896;28;20042;-70
2023/09/28 10:47:09;;;;;;;2.03;0.80;;;;;;;;;;4144208;28;20038;-69
2023/09/28 10:49:15;;;;;;;2.25;0.93;;;;;;;;;;4146219;28;20572;-69
2023/09/28 10:51:17;;;;;;;0.80;0.80;;;;;;;;;;4145293;28;20034;-69
2023/09/28 10:53:19;;;;;;;1.42;0.85;;;;;;;;;;4149031;28;20030;-69
2023/09/28 10:55:21;;;;;;;5.13;1.00;;;;;;;;;;4150222;28;20042;-69
2023/09/28 10:57:32;;;;;;;0.70;0.70;;;;;;;;;;4148178;28;20073;-69
2023/09/28 10:59:36;;;;;;;3.20;0.82;;;;;;;;;;4150129;28;20149;-70
2023/09/28 11:01:41;;;;;;;1.85;0.70;;;;;;;;;;4136838;28;20054;-70
2023/09/28 11:03:44;;;;;;;2.75;0.90;;;;;;;;;;4137525;28;20073;-68
2023/09/28 11:05:45;;;;;;;;;;;;;;;;;;4149211;28;20069;-70
2023/09/28 11:07:48;;;;;;;3.60;0.70;;;;;;;;;;4143658;28;19925;-69
2023/09/28 11:09:51;;;;;;;0.90;0.70;;;;;;;;;;4140172;28;20096;-69
2023/09/28 11:11:52;;;;;;;3.17;0.70;;;;;;;;;;4150142;28;20045;-69
2023/09/28 11:13:59;;;;;;;2.08;0.70;;;;;;;;;;4145707;28;20129;-69
2023/09/28 11:16:04;;;;;;;3.85;0.80;;;;;;;;;;4147268;28;20085;-69
2023/09/28 11:18:06;;;;;;;2.88;0.70;;;;;;;;;;4148174;28;20072;-70
2023/09/28 11:20:11;;;;;;;0.80;0.80;;;;;;;;;;4149444;28;20048;-69
2023/09/28 11:22:14;;;;;;;0.60;0.60;;;;;;;;;;4148314;28;20050;-69
2023/09/28 11:24:16;;;;;;;1.10;0.95;;;;;;;;;;4149877;28;20046;-69
2023/09/28 11:26:21;;;;;;;0.80;0.80;;;;;;;;;;4149241;28;20045;-69
2023/09/28 11:28:23;;;;;;;4.53;1.05;;;;;;;;;;4147178;28;20037;-69
2023/09/28 11:30:24;;;;;;;;;;;;;;;;;;4148633;28;20557;-69
2023/09/28 11:32:26;;;;;;;3.17;1.13;;;;;;;;;;4145949;28;19925;-69
2023/09/28 11:34:37;;;;;;;1.10;1.00;;;;;;;;;;4146492;28;20327;-69
2023/09/28 11:36:40;;;;;;;1.65;0.85;;;;;;;;;;4148593;28;20516;-69
2023/09/28 11:38:43;;;;;;;0.80;0.80;;;;;;;;;;4149610;28;20038;-69
2023/09/28 11:40:45;;;;;;;3.00;0.80;;;;;;;;;;4148968;28;20049;-69
2023/09/28 11:42:51;;;;;;;0.70;0.70;;;;;;;;;;4158703;28;20049;-69
2023/09/28 11:44:57;;;;;;;0.90;0.90;;;;;;;;;;4149642;28;20049;-69
2023/09/28 11:46:58;;;;;;;1.77;0.93;;;;;;;;;;4149158;28;20045;-69
2023/09/28 11:49:09;;;;;;;1.98;0.80;;;;;;;;;;4149210;28;20084;-69
2023/09/28 11:51:10;;;;;;;2.00;0.80;;;;;;;;;;4154221;28;20041;-69
2023/09/28 11:53:14;;;;;;;1.13;0.90;;;;;;;;;;4160577;28;20045;-68
2023/09/28 11:55:17;;;;;;;8.20;1.60;;;;;;;;;;4141597;28;20532;-68
2023/09/28 11:57:22;;;;;;;1.20;0.70;;;;;;;;;;4146034;28;20034;-69
2023/09/28 11:59:24;;;;;;;1.60;0.80;;;;;;;;;;4147977;28;20050;-69
2023/09/28 12:01:26;;;;;;;3.22;0.75;;;;;;;;;;4145232;28;20060;-68
2023/09/28 12:03:27;;;;;;;;;;;;;;;;;;4145770;28;20037;-69
2023/09/28 12:05:29;;;;;;;0.70;0.70;;;;;;;;;;4147217;28;19960;-68
2023/09/28 12:07:31;;;;;;;1.77;0.80;;;;;;;;;;4140672;28;20041;-68
2023/09/28 12:09:34;;;;;;;;;;;;;;;;;;4148241;28;20038;-69
2023/09/28 12:11:37;;;;;;;0.90;0.80;;;;;;;;;;4147435;28;20382;-69
2023/09/28 12:13:39;;;;;;;3.17;0.80;;;;;;;;;;4148914;28;20049;-69
2023/09/28 12:15:41;;;;;;;1.23;0.70;;;;;;;;;;4147572;28;20129;-68
2023/09/28 12:17:43;;;;;;;1.25;0.80;;;;;;;;;;4147302;28;20138;-67